X  Cerrar Datos meteorológicos de aviación METAR     LEVC Valencia
Temperatura
12°C Temperatura
10°C Punto de rocío
88% Humedad



Viento
13 KM/H
8 MPH
4 M/S
7 NUDO



50°
NE
Condiciones actuales

Parcialmente nublado Parcialmente nublado
Presión 1015.92 (hPa) - 30 (inHg)
Visibilidad 4.3 (milla) - 7 (km)
Aeropuerto
Código de aeropuerto LEVC

localidad: Valencia
Distancia: 18 (km)

Metar:
LEVC 211930Z 05007KT 010V080 7000 FEW010 12/10 Q1016 NOSIG

Hora: 21-01-2020 20:30 CET